createdAt,value
2023-02-28T00:53:31.027Z,23.10
2023-02-28T00:55:57.848Z,12.82
2023-02-28T00:58:24.611Z,10.30
2023-02-28T01:00:53.719Z,11.93
2023-02-28T01:03:21.665Z,14.02
2023-02-28T01:05:48.454Z,10.20
2023-02-28T01:08:15.847Z,10.98
2023-02-28T01:10:43.531Z,11.18
2023-02-28T01:13:10.738Z,8.73
2023-02-28T01:15:37.882Z,6.60
2023-02-28T01:18:04.689Z,7.90
2023-02-28T01:20:31.379Z,10.75
2023-02-28T01:22:58.149Z,8.35
2023-02-28T01:25:25.313Z,7.50
2023-02-28T01:27:52.372Z,8.85
2023-02-28T01:30:19.209Z,7.40
2023-02-28T01:32:45.983Z,8.02
2023-02-28T01:35:12.763Z,5.28
2023-02-28T01:37:39.616Z,6.40
2023-02-28T01:40:07.147Z,6.05
2023-02-28T01:42:33.881Z,8.60
2023-02-28T01:45:00.644Z,8.55
2023-02-28T01:47:32.615Z,6.68
2023-02-28T01:50:01.040Z,6.75
2023-02-28T01:52:28.922Z,6.68
2023-02-28T01:54:59.364Z,6.88
2023-02-28T01:57:32.218Z,6.00
2023-02-28T02:00:05.525Z,6.95
2023-02-28T02:02:32.547Z,7.35
2023-02-28T02:05:08.060Z,9.15
2023-02-28T02:07:37.844Z,6.75
2023-02-28T02:10:17.613Z,6.28
2023-02-28T02:12:59.855Z,5.18
2023-02-28T02:15:48.198Z,5.90
2023-02-28T02:18:27.336Z,9.80
2023-02-28T02:21:32.939Z,5.47
2023-02-28T02:24:12.354Z,6.90
2023-02-28T02:26:51.341Z,5.53
2023-02-28T02:29:54.627Z,7.97
2023-02-28T02:32:48.388Z,11.38
2023-02-28T02:35:28.250Z,6.78
2023-02-28T02:38:09.795Z,6.18
2023-02-28T02:41:01.055Z,5.75
2023-02-28T02:43:42.954Z,5.97
2023-02-28T02:46:18.203Z,8.27
2023-02-28T02:48:46.271Z,7.22
2023-02-28T02:51:17.625Z,5.45
2023-02-28T02:54:00.626Z,7.68
2023-02-28T02:56:32.631Z,6.18
2023-02-28T02:59:05.263Z,5.38
2023-02-28T03:01:33.319Z,5.90
2023-02-28T03:04:06.911Z,5.07
2023-02-28T03:06:33.925Z,7.78
2023-02-28T03:09:01.955Z,5.10
2023-02-28T03:11:29.930Z,5.60
2023-02-28T03:14:15.186Z,5.68
2023-02-28T03:17:05.839Z,6.63
2023-02-28T03:20:14.410Z,6.10
2023-02-28T03:22:53.455Z,5.53
2023-02-28T03:25:33.205Z,6.47
2023-02-28T03:28:03.149Z,5.30
2023-02-28T03:31:12.295Z,5.60
2023-02-28T03:34:46.459Z,6.70
2023-02-28T03:37:19.925Z,7.03
2023-02-28T03:39:59.181Z,6.72
2023-02-28T03:42:30.640Z,7.28
2023-02-28T03:45:05.284Z,7.15
2023-02-28T03:47:49.626Z,7.88
2023-02-28T03:50:50.005Z,5.95
2023-02-28T03:53:28.732Z,9.23
2023-02-28T03:56:05.121Z,8.93
2023-02-28T03:58:53.553Z,6.28
2023-02-28T04:01:29.493Z,7.43
2023-02-28T04:03:56.639Z,8.07
2023-02-28T04:06:24.646Z,8.25
2023-02-28T04:08:52.099Z,6.05
2023-02-28T04:11:30.450Z,8.70
2023-02-28T04:13:57.389Z,8.25
2023-02-28T04:16:34.401Z,11.05
2023-02-28T04:19:04.561Z,8.00
2023-02-28T04:21:32.501Z,11.10
2023-02-28T04:24:01.626Z,7.57
2023-02-28T04:26:37.391Z,6.70
2023-02-28T04:29:06.014Z,8.45
2023-02-28T04:31:33.316Z,9.80
2023-02-28T04:34:01.304Z,8.13
2023-02-28T04:36:28.317Z,7.88
2023-02-28T04:38:55.346Z,7.82
2023-02-28T04:41:23.772Z,11.00
2023-02-28T04:43:53.372Z,10.80
2023-02-28T04:46:21.006Z,9.02
2023-02-28T04:48:48.124Z,7.85
2023-02-28T04:51:17.349Z,9.00
2023-02-28T04:53:44.568Z,9.32
2023-02-28T04:56:16.955Z,10.30
2023-02-28T04:58:44.571Z,10.48
2023-02-28T05:01:25.549Z,12.57
2023-02-28T05:03:53.968Z,13.40
2023-02-28T05:06:24.746Z,11.32
2023-02-28T05:08:52.050Z,10.05
2023-02-28T05:11:28.196Z,13.98
2023-02-28T05:13:55.214Z,10.88
2023-02-28T05:16:22.347Z,8.73
2023-02-28T05:18:49.224Z,9.90
2023-02-28T05:21:29.307Z,7.65
2023-02-28T05:23:58.178Z,13.82
2023-02-28T05:26:25.509Z,14.05
2023-02-28T05:28:52.254Z,13.13
2023-02-28T05:31:19.466Z,11.60
2023-02-28T05:33:46.400Z,9.23
2023-02-28T05:36:13.445Z,11.25
2023-02-28T05:38:40.275Z,11.63
2023-02-28T05:41:11.846Z,18.05
2023-02-28T05:43:39.156Z,10.60
2023-02-28T05:46:10.980Z,13.75
2023-02-28T05:48:39.308Z,12.60
2023-02-28T05:51:07.465Z,11.10
2023-02-28T05:53:35.302Z,11.40
2023-02-28T05:56:02.701Z,11.27
2023-02-28T05:58:31.853Z,10.23
2023-02-28T06:01:20.155Z,9.30
2023-02-28T06:03:46.989Z,9.38
2023-02-28T06:06:13.765Z,9.52
2023-02-28T06:08:40.574Z,9.00
2023-02-28T06:11:07.846Z,6.25
2023-02-28T06:13:34.667Z,9.43
2023-02-28T06:16:04.576Z,10.95
2023-02-28T06:18:31.493Z,17.30
2023-02-28T06:20:58.266Z,23.40
2023-02-28T06:23:25.144Z,27.83
2023-02-28T06:25:54.034Z,17.05
2023-02-28T06:28:20.963Z,13.25
2023-02-28T06:30:47.704Z,13.80
2023-02-28T06:33:14.475Z,10.80
2023-02-28T06:35:44.280Z,9.43
2023-02-28T06:38:11.773Z,10.05
2023-02-28T06:40:38.592Z,9.82
2023-02-28T06:43:05.507Z,9.07
2023-02-28T06:45:32.277Z,9.68
2023-02-28T06:47:59.553Z,8.18
2023-02-28T06:50:26.409Z,7.93
2023-02-28T06:52:55.014Z,9.23
2023-02-28T06:55:21.857Z,7.97
2023-02-28T06:57:48.838Z,10.68
2023-02-28T07:00:16.122Z,7.97
2023-02-28T07:02:43.294Z,10.50
2023-02-28T07:05:10.143Z,8.20
2023-02-28T07:07:39.249Z,11.68
2023-02-28T07:10:06.356Z,13.10
2023-02-28T07:12:33.649Z,12.75
2023-02-28T07:15:00.454Z,14.70
2023-02-28T07:17:27.290Z,10.63
2023-02-28T07:19:54.133Z,14.05
2023-02-28T07:22:21.087Z,9.07
2023-02-28T07:24:47.821Z,8.23
2023-02-28T07:27:24.657Z,8.30
2023-02-28T07:29:51.698Z,10.63
2023-02-28T07:32:19.601Z,9.98
2023-02-28T07:34:46.854Z,10.40
2023-02-28T07:37:13.669Z,10.98
2023-02-28T07:39:42.740Z,9.85
2023-02-28T07:42:12.271Z,10.77
2023-02-28T07:44:41.456Z,10.35
2023-02-28T07:47:11.401Z,9.55
2023-02-28T07:49:38.549Z,12.75
2023-02-28T07:52:07.230Z,11.13
2023-02-28T07:54:34.323Z,9.18
2023-02-28T07:57:01.163Z,10.48
2023-02-28T07:59:28.104Z,9.40
2023-02-28T08:01:55.624Z,14.30
2023-02-28T08:04:22.467Z,11.98
2023-02-28T08:06:49.237Z,10.18
2023-02-28T08:09:16.039Z,6.70
2023-02-28T08:11:42.857Z,10.20
2023-02-28T08:14:09.719Z,14.23
2023-02-28T08:16:36.583Z,14.15
2023-02-28T08:19:03.655Z,26.73
2023-02-28T08:21:30.763Z,19.67
2023-02-28T08:23:57.917Z,18.88
2023-02-28T08:26:24.716Z,16.42
2023-02-28T08:28:51.582Z,10.43
2023-02-28T08:31:19.436Z,12.93
2023-02-28T08:33:46.718Z,8.73
2023-02-28T08:36:13.608Z,12.70
2023-02-28T08:38:40.845Z,8.57
2023-02-28T08:41:11.269Z,10.75
2023-02-28T08:43:39.332Z,10.60
2023-02-28T08:46:06.950Z,7.97
2023-02-28T08:48:35.907Z,7.20
2023-02-28T08:51:08.083Z,10.65
2023-02-28T08:53:40.266Z,12.73
2023-02-28T08:56:13.179Z,8.32
2023-02-28T08:58:40.828Z,8.25
2023-02-28T09:01:22.877Z,8.13
2023-02-28T09:03:51.329Z,8.15
2023-02-28T09:06:19.776Z,12.10
2023-02-28T09:08:46.712Z,9.27
2023-02-28T09:11:13.915Z,12.57
2023-02-28T09:13:41.162Z,8.85
2023-02-28T09:16:11.896Z,8.93
2023-02-28T09:18:39.314Z,11.90
2023-02-28T09:21:07.834Z,9.90
2023-02-28T09:23:35.074Z,10.80
2023-02-28T09:26:02.260Z,10.02
2023-02-28T09:28:29.155Z,9.70
2023-02-28T09:30:56.151Z,13.68
2023-02-28T09:33:23.196Z,14.35
2023-02-28T09:35:51.292Z,15.00
2023-02-28T09:38:18.644Z,10.25
2023-02-28T09:40:51.633Z,11.93
2023-02-28T09:43:21.347Z,9.35
2023-02-28T09:46:32.679Z,10.30
2023-02-28T09:49:11.616Z,13.95
2023-02-28T09:52:02.045Z,12.30
2023-02-28T09:54:33.970Z,10.45
2023-02-28T09:57:06.027Z,12.13
2023-02-28T09:59:55.562Z,17.90
2023-02-28T10:02:27.855Z,15.32
2023-02-28T10:04:56.203Z,13.23
2023-02-28T10:07:49.223Z,11.27
2023-02-28T10:10:46.356Z,8.85
2023-02-28T10:13:22.100Z,11.80
2023-02-28T10:15:53.570Z,10.65
2023-02-28T10:18:25.641Z,9.68
2023-02-28T10:20:53.717Z,10.23
2023-02-28T10:23:36.509Z,10.18
2023-02-28T10:26:14.755Z,11.05
2023-02-28T10:28:41.731Z,6.57
2023-02-28T10:31:19.402Z,11.15
2023-02-28T10:33:46.746Z,8.15
2023-02-28T10:36:17.704Z,12.80
2023-02-28T10:38:45.925Z,8.63
2023-02-28T10:41:16.373Z,10.80
2023-02-28T10:43:46.248Z,9.07
2023-02-28T10:46:27.052Z,7.82
2023-02-28T10:49:04.461Z,9.18
2023-02-28T10:51:42.213Z,7.05
2023-02-28T10:54:23.381Z,7.47
2023-02-28T10:57:20.536Z,6.25
2023-02-28T10:59:51.448Z,6.88
2023-02-28T11:02:39.317Z,9.30
2023-02-28T11:05:25.961Z,8.15
2023-02-28T11:10:40.514Z,11.60
2023-02-28T11:13:07.394Z,9.23
2023-02-28T11:15:35.946Z,11.52
2023-02-28T11:18:53.708Z,8.25
2023-02-28T11:21:28.546Z,11.88
2023-02-28T11:24:36.133Z,8.03
2023-02-28T11:27:03.464Z,8.00
2023-02-28T11:29:33.480Z,10.10
2023-02-28T11:32:21.468Z,8.77
2023-02-28T11:35:10.082Z,9.15
2023-02-28T11:37:37.223Z,11.55
2023-02-28T11:40:13.779Z,11.88
2023-02-28T11:43:00.841Z,12.48
2023-02-28T11:45:46.488Z,10.52
2023-02-28T11:48:51.032Z,13.63
2023-02-28T11:51:34.705Z,8.45
2023-02-28T11:54:24.225Z,12.45
2023-02-28T11:57:17.048Z,10.43
2023-02-28T11:59:52.314Z,9.95
2023-02-28T12:02:29.534Z,15.23
2023-02-28T12:05:11.910Z,10.68
2023-02-28T12:08:04.535Z,10.20
2023-02-28T12:10:38.540Z,7.35
2023-02-28T12:13:47.677Z,8.65
2023-02-28T12:16:24.759Z,11.50
2023-02-28T12:18:57.019Z,10.13
2023-02-28T12:22:00.724Z,11.07
2023-02-28T12:24:50.630Z,11.13
2023-02-28T12:27:22.843Z,13.13
2023-02-28T12:30:16.869Z,11.88
2023-02-28T12:32:52.314Z,9.05
2023-02-28T12:35:33.354Z,9.50
2023-02-28T12:38:20.378Z,10.65
2023-02-28T12:41:00.881Z,11.85
2023-02-28T12:43:40.791Z,13.30
2023-02-28T12:46:20.465Z,10.15
2023-02-28T12:48:57.488Z,14.18
2023-02-28T12:51:26.185Z,12.60
2023-02-28T12:54:10.525Z,9.18
2023-02-28T12:56:45.287Z,12.02
2023-02-28T12:59:15.819Z,9.35
2023-02-28T13:02:04.711Z,12.20
2023-02-28T13:04:58.352Z,12.75
2023-02-28T13:08:04.377Z,10.07
2023-02-28T13:10:50.987Z,10.02
2023-02-28T13:13:21.140Z,11.23
2023-02-28T13:16:06.362Z,12.00
2023-02-28T13:18:38.334Z,13.52
2023-02-28T13:21:10.320Z,9.48
2023-02-28T13:24:03.201Z,12.05
2023-02-28T13:26:39.304Z,11.75
2023-02-28T13:29:12.044Z,9.48
2023-02-28T13:32:06.985Z,10.60
2023-02-28T13:34:38.396Z,9.38
2023-02-28T13:37:23.444Z,14.93
2023-02-28T13:39:51.545Z,9.55
2023-02-28T13:42:48.061Z,9.25
2023-02-28T13:45:14.773Z,12.90
2023-02-28T13:47:47.934Z,9.30
2023-02-28T13:50:26.836Z,9.43
2023-02-28T13:53:43.738Z,12.50
2023-02-28T13:56:43.959Z,16.20
2023-02-28T13:59:21.866Z,13.02
2023-02-28T14:01:58.409Z,12.52
2023-02-28T14:04:40.281Z,14.15
2023-02-28T14:07:08.521Z,11.63
2023-02-28T14:09:41.681Z,10.30
2023-02-28T14:12:46.125Z,11.32
2023-02-28T14:15:49.335Z,10.77
2023-02-28T14:18:33.158Z,14.60
2023-02-28T14:21:12.088Z,10.65
2023-02-28T14:23:53.895Z,14.27
2023-02-28T14:26:44.484Z,14.52
2023-02-28T14:29:38.024Z,13.15
2023-02-28T14:32:14.786Z,11.85
2023-02-28T14:35:06.182Z,13.27
2023-02-28T14:37:38.476Z,14.23
2023-02-28T14:40:06.088Z,19.60
2023-02-28T14:42:34.524Z,13.25
2023-02-28T14:45:02.232Z,15.27
2023-02-28T14:47:34.650Z,13.80
2023-02-28T14:50:04.716Z,12.05
2023-02-28T14:52:33.571Z,11.13
2023-02-28T14:55:08.055Z,12.00
2023-02-28T14:57:41.303Z,12.30
2023-02-28T15:00:31.636Z,10.20
2023-02-28T15:03:00.709Z,11.45
2023-02-28T15:05:35.378Z,11.25
2023-02-28T15:08:17.267Z,11.90
2023-02-28T15:11:07.600Z,15.88
2023-02-28T15:13:51.889Z,9.25
2023-02-28T15:16:23.119Z,12.80
2023-02-28T15:19:01.976Z,11.57
2023-02-28T15:21:36.590Z,15.30
2023-02-28T15:24:15.423Z,13.50
2023-02-28T15:26:46.868Z,14.15
2023-02-28T15:29:21.332Z,16.35
2023-02-28T15:31:58.222Z,13.30
2023-02-28T15:34:44.307Z,13.75
2023-02-28T15:37:33.488Z,15.27
2023-02-28T15:40:11.571Z,15.43
2023-02-28T15:42:39.067Z,17.27
2023-02-28T15:45:06.397Z,14.90
2023-02-28T15:47:34.004Z,13.90
2023-02-28T15:50:04.368Z,16.58
2023-02-28T15:52:43.502Z,14.43
2023-02-28T15:55:19.619Z,13.70
2023-02-28T15:57:49.385Z,16.00
2023-02-28T16:00:20.644Z,18.48
2023-02-28T16:02:47.633Z,15.32
2023-02-28T16:05:29.217Z,15.35
2023-02-28T16:08:02.352Z,15.77
2023-02-28T16:10:30.391Z,16.65
2023-02-28T16:12:58.826Z,22.30
2023-02-28T16:15:29.617Z,19.05
2023-02-28T16:17:57.653Z,20.80
2023-02-28T16:20:25.596Z,17.67
2023-02-28T16:22:52.796Z,17.85
2023-02-28T16:25:35.405Z,18.33
2023-02-28T16:28:02.965Z,21.75
2023-02-28T16:30:33.663Z,18.85
2023-02-28T16:33:00.945Z,21.80
2023-02-28T16:35:27.765Z,20.73
2023-02-28T16:37:55.105Z,21.58
2023-02-28T16:40:26.284Z,21.75
2023-02-28T16:42:58.574Z,18.60
2023-02-28T16:45:28.103Z,22.67
2023-02-28T16:47:55.946Z,19.13
2023-02-28T16:50:28.714Z,19.35
2023-02-28T16:52:56.000Z,18.67
2023-02-28T16:55:24.803Z,19.92
2023-02-28T16:57:58.135Z,20.23
2023-02-28T17:00:26.369Z,18.90
2023-02-28T17:02:53.502Z,19.38
2023-02-28T17:05:21.045Z,19.63
2023-02-28T17:07:49.052Z,17.05
2023-02-28T17:10:23.768Z,19.92
2023-02-28T17:12:51.317Z,23.50
2023-02-28T17:15:20.650Z,15.75
2023-02-28T17:17:49.858Z,19.30
2023-02-28T17:20:23.616Z,19.63
2023-02-28T17:22:51.438Z,21.40
2023-02-28T17:25:18.533Z,19.52
2023-02-28T17:27:45.602Z,21.90
2023-02-28T17:30:22.003Z,18.27
2023-02-28T17:32:48.873Z,19.58
2023-02-28T17:35:16.096Z,25.58
2023-02-28T17:37:43.207Z,30.65
2023-02-28T17:40:18.655Z,23.98
2023-02-28T17:42:46.058Z,23.00
2023-02-28T17:45:14.165Z,23.02
2023-02-28T17:47:42.651Z,22.08
2023-02-28T17:50:16.870Z,20.63
2023-02-28T17:52:43.704Z,22.30
2023-02-28T17:55:12.564Z,21.05
2023-02-28T17:57:39.701Z,25.98
2023-02-28T18:00:07.763Z,22.02
2023-02-28T18:02:34.654Z,20.98
2023-02-28T18:05:01.697Z,22.70
2023-02-28T18:07:28.508Z,20.60
2023-02-28T18:09:55.411Z,21.05
2023-02-28T18:12:22.215Z,20.25
2023-02-28T18:14:49.057Z,21.45
2023-02-28T18:17:15.823Z,24.42
2023-02-28T18:19:42.634Z,18.45
2023-02-28T18:22:09.748Z,22.92
2023-02-28T18:24:36.767Z,20.50
2023-02-28T18:27:03.722Z,18.65
2023-02-28T18:29:32.089Z,20.77
2023-02-28T18:31:59.523Z,15.95
2023-02-28T18:34:26.773Z,21.63
2023-02-28T18:36:53.839Z,18.48
2023-02-28T18:39:20.939Z,21.90
2023-02-28T18:41:47.827Z,18.38
2023-02-28T18:44:20.251Z,19.50
2023-02-28T18:46:48.958Z,22.98
2023-02-28T18:49:16.374Z,23.35
2023-02-28T18:51:45.329Z,21.13
2023-02-28T18:54:13.995Z,21.02
2023-02-28T18:56:40.968Z,25.25
2023-02-28T18:59:07.753Z,19.08
2023-02-28T19:01:34.630Z,17.02
2023-02-28T19:04:03.481Z,23.98
2023-02-28T19:06:32.046Z,20.80
2023-02-28T19:09:00.829Z,18.33
2023-02-28T19:11:27.903Z,17.95
2023-02-28T19:13:54.939Z,17.20
2023-02-28T19:16:23.169Z,17.15
2023-02-28T19:18:50.544Z,18.52
2023-02-28T19:21:19.979Z,21.17
2023-02-28T19:23:46.770Z,14.35
2023-02-28T19:26:20.008Z,16.88
2023-02-28T19:28:47.635Z,14.88
2023-02-28T19:31:17.415Z,16.23
2023-02-28T19:33:44.232Z,20.23
2023-02-28T19:36:12.643Z,17.67
2023-02-28T19:38:40.475Z,16.77
2023-02-28T19:41:10.455Z,14.70
2023-02-28T19:43:37.532Z,16.13
2023-02-28T19:46:05.032Z,18.23
2023-02-28T19:48:31.874Z,16.58
2023-02-28T19:51:03.474Z,16.52
2023-02-28T19:53:32.045Z,17.58
2023-02-28T19:56:00.394Z,19.85
2023-02-28T19:58:27.708Z,15.35
2023-02-28T20:00:54.509Z,15.95
2023-02-28T20:03:21.867Z,15.52
2023-02-28T20:05:58.739Z,15.40
2023-02-28T20:08:25.614Z,16.20
2023-02-28T20:10:52.422Z,16.08
2023-02-28T20:13:20.661Z,16.48
2023-02-28T20:15:49.909Z,17.73
2023-02-28T20:18:16.851Z,17.00
2023-02-28T20:20:43.816Z,16.45
2023-02-28T20:23:11.234Z,14.65
2023-02-28T20:25:41.101Z,13.93
2023-02-28T20:28:07.822Z,15.55
2023-02-28T20:30:35.017Z,17.10
2023-02-28T20:33:01.839Z,16.27
2023-02-28T20:35:28.711Z,15.73
2023-02-28T20:37:55.500Z,14.70
2023-02-28T20:40:22.246Z,14.70
2023-02-28T20:42:49.179Z,19.27
2023-02-28T20:45:16.053Z,15.73
2023-02-28T20:47:43.656Z,19.08
2023-02-28T20:50:11.384Z,12.93
2023-02-28T20:52:38.211Z,12.82
2023-02-28T20:55:05.774Z,13.77
2023-02-28T20:57:32.630Z,16.60
2023-02-28T20:59:59.354Z,17.45
2023-02-28T21:02:26.699Z,14.95
2023-02-28T21:04:53.569Z,15.00
2023-02-28T21:07:20.286Z,15.35
2023-02-28T21:09:47.004Z,17.58
2023-02-28T21:12:13.739Z,16.83
2023-02-28T21:14:40.518Z,18.25
2023-02-28T21:17:10.424Z,18.67
2023-02-28T21:19:37.277Z,17.10
2023-02-28T21:22:04.132Z,15.93
2023-02-28T21:24:30.903Z,15.20
2023-02-28T21:26:59.714Z,15.27
2023-02-28T21:29:26.571Z,15.27
2023-02-28T21:31:53.441Z,13.00
2023-02-28T21:34:20.493Z,15.35
2023-02-28T21:36:47.490Z,16.10
2023-02-28T21:39:25.904Z,12.23
2023-02-28T21:41:53.652Z,15.30
2023-02-28T21:44:22.742Z,14.63
2023-02-28T21:46:56.845Z,16.83
2023-02-28T21:49:24.296Z,17.23
2023-02-28T21:51:50.998Z,18.38
2023-02-28T21:54:18.057Z,15.63
2023-02-28T21:56:44.854Z,15.52
2023-02-28T21:59:11.862Z,12.80
2023-02-28T22:01:46.289Z,16.30
2023-02-28T22:04:22.657Z,15.65
2023-02-28T22:06:59.768Z,16.52
2023-02-28T22:09:26.581Z,18.10
2023-02-28T22:11:53.359Z,12.90
2023-02-28T22:14:20.293Z,16.35
2023-02-28T22:16:51.865Z,16.33
2023-02-28T22:19:20.339Z,18.60
2023-02-28T22:21:47.651Z,15.10
2023-02-28T22:24:17.709Z,18.30
2023-02-28T22:26:45.096Z,15.18
2023-02-28T22:29:11.907Z,16.25
2023-02-28T22:31:38.694Z,15.35
2023-02-28T22:34:08.711Z,18.80
2023-02-28T22:36:35.963Z,18.67
2023-02-28T22:39:04.128Z,16.20
2023-02-28T22:41:31.161Z,17.08
2023-02-28T22:44:01.544Z,16.70
2023-02-28T22:46:30.578Z,14.55
2023-02-28T22:49:02.933Z,20.33
2023-02-28T22:51:30.146Z,18.98
2023-02-28T22:53:58.501Z,17.75
2023-02-28T22:56:27.603Z,17.92
2023-02-28T22:58:59.058Z,17.30
2023-02-28T23:01:28.550Z,17.55
2023-02-28T23:03:55.982Z,17.60
2023-02-28T23:06:32.038Z,15.38
2023-02-28T23:09:01.818Z,17.58
2023-02-28T23:11:34.953Z,17.20
2023-02-28T23:14:02.081Z,14.93
2023-02-28T23:16:56.744Z,14.93
2023-02-28T23:19:29.778Z,16.35
2023-02-28T23:21:58.310Z,19.02
2023-02-28T23:24:27.149Z,21.92
2023-02-28T23:26:56.942Z,21.75
2023-02-28T23:29:25.155Z,14.90
2023-02-28T23:31:52.249Z,18.08
2023-02-28T23:34:26.489Z,14.98
2023-02-28T23:36:55.397Z,18.00
2023-02-28T23:39:22.636Z,16.08
2023-02-28T23:41:49.614Z,17.30
2023-02-28T23:44:17.291Z,18.98
2023-02-28T23:46:46.640Z,17.45
2023-02-28T23:49:14.226Z,18.73
2023-02-28T23:51:41.522Z,14.52
2023-02-28T23:54:08.743Z,16.58
2023-02-28T23:56:35.567Z,17.50
2023-02-28T23:59:02.399Z,15.85
